Time;durP1;ratioP1;P1;durP2;ratioP2;P2;SDS_P1;SDS_P2;PMS_P1;PMS_P2;Temp;Humidity;BMP_temperature;BMP_pressure;BME280_temperature;BME280_humidity;BME280_pressure;Samples;Min_cycle;Max_cycle;Signal;HPM_P1;HPM_P2
2023/08/27 00:00:43;;;;;;;10.20;8.80;;;;;;;23.39;76.08;99837.55;84085;281;136886;-72
2023/08/27 00:02:45;;;;;;;9.70;8.70;;;;;;;23.40;76.23;99839.81;84494;278;25198;-73
2023/08/27 00:04:47;;;;;;;10.30;9.10;;;;;;;23.41;76.06;99843.55;84256;282;136532;-73
2023/08/27 00:06:49;;;;;;;11.30;10.20;;;;;;;23.42;76.31;99842.68;84279;282;26203;-71
2023/08/27 00:08:50;;;;;;;12.90;9.70;;;;;;;23.42;76.30;99847.25;84316;281;136640;-72
2023/08/27 00:10:59;;;;;;;10.10;9.10;;;;;;;23.40;76.75;99844.42;84465;281;22547;-73
2023/08/27 00:13:01;;;;;;;9.90;8.60;;;;;;;23.29;77.09;99832.56;84370;269;135913;-75
2023/08/27 00:15:04;;;;;;;10.30;9.30;;;;;;;23.31;77.37;99836.58;84427;281;24991;-72
2023/08/27 00:17:06;;;;;;;10.00;9.10;;;;;;;23.25;77.69;99829.40;84377;281;135994;-71
2023/08/27 00:19:08;;;;;;;10.70;9.30;;;;;;;23.21;77.93;99829.38;84406;281;25144;-71
2023/08/27 00:21:10;;;;;;;10.50;9.40;;;;;;;23.18;78.29;99827.55;84266;281;136813;-71
2023/08/27 00:23:13;;;;;;;10.80;9.80;;;;;;;23.15;78.41;99829.98;84400;281;25195;-71
2023/08/27 00:25:16;;;;;;;11.80;10.60;;;;;;;23.12;78.49;99830.04;84313;281;136771;-70
2023/08/27 00:27:18;;;;;;;10.10;9.00;;;;;;;23.10;78.87;99826.70;84515;281;24100;-71
2023/08/27 00:29:22;;;;;;;12.30;9.70;;;;;;;23.09;79.05;99821.55;84173;282;136650;-72
2023/08/27 00:31:23;;;;;;;9.70;8.90;;;;;;;23.06;79.61;99821.72;84455;281;23560;-70
2023/08/27 00:33:25;;;;;;;10.90;9.60;;;;;;;23.03;79.62;99823.25;84267;281;137457;-72
2023/08/27 00:35:27;;;;;;;11.60;9.80;;;;;;;23.01;79.83;99820.32;84179;284;22556;-72
2023/08/27 00:37:31;;;;;;;9.90;9.00;;;;;;;23.00;79.84;99824.55;84067;283;137014;-71
2023/08/27 00:39:33;;;;;;;10.00;8.90;;;;;;;22.98;80.04;99830.02;84277;282;25294;-72
2023/08/27 00:41:35;;;;;;;11.90;9.80;;;;;;;22.96;80.43;99836.83;84244;283;137254;-71
2023/08/27 00:43:37;;;;;;;13.70;10.10;;;;;;;22.95;80.73;99839.22;84492;281;25211;-70
2023/08/27 00:45:40;;;;;;;9.60;8.60;;;;;;;22.93;80.94;99839.02;84084;283;136917;-72
2023/08/27 00:47:42;;;;;;;11.60;10.20;;;;;;;22.87;81.16;99840.59;86909;283;22481;-71
2023/08/27 00:49:45;;;;;;;11.30;10.20;;;;;;;22.81;81.41;99842.46;84112;283;137284;-72
2023/08/27 00:51:47;;;;;;;12.60;9.60;;;;;;;22.79;81.74;99844.70;84035;284;26447;-70
2023/08/27 00:53:49;;;;;;;15.10;10.60;;;;;;;22.77;81.92;99841.90;84147;283;138293;-70
2023/08/27 00:55:52;;;;;;;11.80;10.00;;;;;;;22.75;82.03;99844.85;84286;282;25152;-71
2023/08/27 00:57:55;;;;;;;11.20;10.10;;;;;;;22.76;82.01;99847.52;84333;281;138373;-70
2023/08/27 00:59:58;;;;;;;11.50;10.40;;;;;;;22.76;82.22;99848.92;84221;270;25219;-72
2023/08/27 01:02:00;;;;;;;12.40;10.00;;;;;;;22.76;82.32;99846.64;84290;281;136974;-72
2023/08/27 01:04:04;;;;;;;10.80;9.80;;;;;;;22.78;82.25;99851.79;84349;281;137774;-71
2023/08/27 01:06:07;;;;;;;13.60;11.40;;;;;;;22.77;82.25;99846.52;84298;283;24180;-71
2023/08/27 01:08:56;;;;;;;11.40;10.20;;;;;;;22.76;82.57;99846.14;84175;283;136964;-72
2023/08/27 01:11:12;;;;;;;11.80;10.70;;;;;;;22.72;82.80;99845.85;83889;283;23692;-71
2023/08/27 01:13:25;;;;;;;10.70;9.60;;;;;;;22.69;83.12;99851.29;84225;282;137884;-72
2023/08/27 01:15:29;;;;;;;11.70;10.60;;;;;;;22.69;83.36;99854.60;84342;283;23110;-69
2023/08/27 01:17:35;;;;;;;11.90;10.80;;;;;;;22.69;83.52;99853.25;84239;281;137292;-73
2023/08/27 01:19:37;;;;;;;11.50;10.50;;;;;;;22.68;83.66;99855.05;84297;283;24063;-69
2023/08/27 01:21:41;;;;;;;11.20;9.90;;;;;;;22.66;83.89;99856.96;84192;282;137775;-72
2023/08/27 01:23:42;;;;;;;12.00;10.90;;;;;;;22.64;84.15;99858.02;84346;283;24101;-71
2023/08/27 01:25:50;;;;;;;10.60;9.40;;;;;;;22.63;84.52;99858.06;84211;283;136910;-72
2023/08/27 01:28:00;;;;;;;12.90;10.90;;;;;;;22.57;84.43;99846.69;84339;282;24099;-72
2023/08/27 01:30:12;;;;;;;11.10;10.10;;;;;;;22.65;84.41;99856.05;84186;282;137710;-66
2023/08/27 01:32:31;;;;;;;11.40;9.30;;;;;;;22.68;84.61;99855.27;84051;283;137204;-67
2023/08/27 01:34:35;;;;;;;11.40;9.40;;;;;;;22.68;84.58;99856.79;84109;284;24102;-71
2023/08/27 01:36:37;;;;;;;10.90;9.90;;;;;;;22.69;84.60;99855.69;84317;282;136935;-73
2023/08/27 01:38:40;;;;;;;11.20;10.10;;;;;;;22.70;84.63;99854.12;84277;282;22538;-72
2023/08/27 01:40:43;;;;;;;13.50;10.90;;;;;;;22.70;84.89;99852.10;84115;283;137274;-73
2023/08/27 01:42:47;;;;;;;12.60;10.30;;;;;;;22.69;85.02;99849.33;84497;282;22585;-72
2023/08/27 01:44:49;;;;;;;11.90;10.70;;;;;;;22.69;85.10;99847.34;84295;270;137301;-71
2023/08/27 01:46:50;;;;;;;10.50;9.20;;;;;;;22.68;85.13;99851.19;84335;282;22572;-71
2023/08/27 01:48:52;;;;;;;12.00;9.80;;;;;;;22.68;85.37;99846.73;84151;282;137078;-72
2023/08/27 01:50:54;;;;;;;11.80;10.70;;;;;;;22.69;85.37;99845.20;84285;282;22747;-73
2023/08/27 01:52:56;;;;;;;11.00;10.10;;;;;;;22.68;85.39;99843.92;84239;281;137326;-71
2023/08/27 01:54:59;;;;;;;10.90;10.00;;;;;;;22.68;85.54;99841.91;84153;284;25275;-71
2023/08/27 01:57:02;;;;;;;11.80;10.70;;;;;;;22.67;85.58;99839.84;84238;283;137344;-73
2023/08/27 01:59:04;;;;;;;11.80;10.40;;;;;;;22.66;85.74;99832.99;84188;283;22550;-69
2023/08/27 02:01:06;;;;;;;11.40;10.40;;;;;;;22.66;85.85;99832.68;84195;282;138240;-69
2023/08/27 02:03:08;;;;;;;12.60;11.10;;;;;;;22.65;86.06;99829.80;84420;281;22543;-74
2023/08/27 02:05:10;;;;;;;10.80;9.80;;;;;;;22.64;85.99;99828.40;84113;282;137216;-69
2023/08/27 02:07:11;;;;;;;12.50;11.00;;;;;;;22.63;86.01;99825.14;84215;283;24046;-71
2023/08/27 02:09:13;;;;;;;11.80;10.70;;;;;;;22.63;86.09;99828.15;84223;291;137739;-71
2023/08/27 02:11:15;;;;;;;13.30;11.20;;;;;;;22.61;86.42;99830.05;84189;282;25163;-70
2023/08/27 02:13:17;;;;;;;12.30;10.80;;;;;;;22.60;86.52;99828.10;84180;283;137265;-71
2023/08/27 02:15:18;;;;;;;11.70;10.60;;;;;;;22.57;86.49;99830.34;84355;282;22546;-71
2023/08/27 02:17:20;;;;;;;11.80;10.70;;;;;;;22.56;86.61;99834.59;84238;282;137197;-74
2023/08/27 02:19:22;;;;;;;12.60;11.40;;;;;;;22.52;87.05;99832.55;84202;283;22582;-72
2023/08/27 02:21:24;;;;;;;12.70;11.50;;;;;;;22.49;87.40;99835.92;84147;281;137532;-72
2023/08/27 02:23:26;;;;;;;12.20;11.00;;;;;;;22.49;87.64;99839.34;84314;282;22549;-72
2023/08/27 02:25:28;;;;;;;11.30;10.30;;;;;;;22.47;87.99;99844.41;84179;283;137512;-72
2023/08/27 02:27:30;;;;;;;11.40;10.00;;;;;;;22.44;88.02;99842.74;84277;282;24202;-71
2023/08/27 02:29:32;;;;;;;12.20;11.10;;;;;;;22.43;88.31;99838.45;84231;282;136316;-74
2023/08/27 02:31:34;;;;;;;13.30;10.60;;;;;;;22.41;88.24;99834.08;84208;282;22565;-74
2023/08/27 02:33:37;;;;;;;12.60;11.40;;;;;;;22.42;88.35;99834.77;84137;282;136778;-72
2023/08/27 02:35:39;;;;;;;12.70;11.20;;;;;;;22.46;88.28;99832.85;84297;282;22564;-72
2023/08/27 02:37:40;;;;;;;11.30;10.00;;;;;;;22.48;88.13;99833.98;84078;283;136996;-72
2023/08/27 02:39:42;;;;;;;13.40;10.50;;;;;;;22.51;87.91;99837.33;84205;283;26342;-73
2023/08/27 02:41:44;;;;;;;12.60;10.80;;;;;;;22.53;87.69;99842.74;84171;283;137457;-73
2023/08/27 02:43:46;;;;;;;11.50;10.40;;;;;;;22.51;87.82;99841.23;84170;283;22562;-71
2023/08/27 02:45:50;;;;;;;11.50;10.40;;;;;;;22.51;87.78;99839.99;84136;283;138223;-69
2023/08/27 02:47:52;;;;;;;11.80;10.40;;;;;;;22.51;88.03;99841.08;84274;281;22550;-72
2023/08/27 02:49:54;;;;;;;13.00;11.70;;;;;;;22.51;87.89;99838.80;84169;283;137124;-74
2023/08/27 02:51:55;;;;;;;12.40;10.00;;;;;;;22.52;88.06;99842.48;84325;281;22543;-70
2023/08/27 02:53:57;;;;;;;11.90;10.70;;;;;;;22.55;87.93;99839.47;84086;283;136777;-71
2023/08/27 02:55:59;;;;;;;13.00;10.70;;;;;;;22.57;87.57;99838.88;84170;284;22594;-73
2023/08/27 02:58:02;;;;;;;12.10;11.00;;;;;;;22.61;87.25;99834.99;84181;283;137346;-73
2023/08/27 03:00:05;;;;;;;12.10;10.90;;;;;;;22.60;87.18;99839.98;84213;283;22552;-70
2023/08/27 03:02:06;;;;;;;12.20;10.60;;;;;;;22.58;87.23;99839.36;84232;282;22650;-71
2023/08/27 03:04:08;;;;;;;12.30;11.10;;;;;;;22.55;87.39;99843.34;84085;282;137458;-71
2023/08/27 03:06:10;;;;;;;12.30;11.20;;;;;;;22.52;87.64;99843.30;84109;284;24240;-72
2023/08/27 03:08:12;;;;;;;11.60;10.50;;;;;;;22.48;87.80;99837.45;84091;283;137399;-72
2023/08/27 03:10:14;;;;;;;12.40;11.20;;;;;;;22.47;87.94;99837.08;84304;281;22646;-73
2023/08/27 03:12:16;;;;;;;12.10;10.80;;;;;;;22.46;88.13;99834.27;84184;281;138827;-71
2023/08/27 03:14:18;;;;;;;12.70;10.60;;;;;;;22.44;88.20;99838.34;84203;283;24132;-70
2023/08/27 03:16:19;;;;;;;11.50;9.90;;;;;;;22.43;88.42;99836.06;84242;281;137522;-69
2023/08/27 03:18:21;;;;;;;13.00;11.60;;;;;;;22.40;88.64;99839.52;84188;283;22579;-76
2023/08/27 03:20:23;;;;;;;11.30;10.30;;;;;;;22.38;88.86;99841.20;84135;283;138285;-73
2023/08/27 03:22:26;;;;;;;12.50;11.00;;;;;;;22.34;89.28;99844.42;84358;282;25136;-76
2023/08/27 03:24:27;;;;;;;11.20;10.00;;;;;;;22.31;89.54;99845.08;84237;281;138334;-71
2023/08/27 03:26:29;;;;;;;12.30;11.00;;;;;;;22.30;89.75;99848.73;84398;281;22644;-69
2023/08/27 03:28:31;;;;;;;11.40;10.40;;;;;;;22.29;90.28;99857.69;84374;281;137305;-68
2023/08/27 03:30:33;;;;;;;14.90;11.40;;;;;;;22.33;90.52;99860.00;84229;281;22671;-70
2023/08/27 03:32:35;;;;;;;12.80;11.50;;;;;;;22.38;90.67;99860.09;84102;283;136963;-74
2023/08/27 03:34:37;;;;;;;15.20;12.00;;;;;;;22.45;90.70;99857.17;84225;282;24142;-76
2023/08/27 03:36:40;;;;;;;12.30;11.00;;;;;;;22.58;90.73;99857.55;84197;281;137310;-76
2023/08/27 03:38:41;;;;;;;13.60;12.20;;;;;;;22.76;90.41;99851.79;84261;283;22550;-74
2023/08/27 03:40:48;;;;;;;14.90;11.10;;;;;;;22.93;89.54;99843.04;84170;283;138809;-75
2023/08/27 03:42:50;;;;;;;12.90;11.10;;;;;;;23.11;89.22;99839.19;84245;282;25258;-73
2023/08/27 03:44:52;;;;;;;11.60;10.00;;;;;;;23.38;88.45;99840.87;84124;283;137389;-72
2023/08/27 03:46:54;;;;;;;16.30;11.10;;;;;;;23.74;87.32;99849.24;84358;281;23894;-72
2023/08/27 03:49:00;;;;;;;10.70;9.70;;;;;;;24.17;85.80;99841.81;84128;283;137489;-74
2023/08/27 03:51:03;;;;;;;12.40;11.10;;;;;;;24.62;83.22;99839.63;84414;281;22680;-72
2023/08/27 03:53:07;;;;;;;10.60;9.60;;;;;;;25.00;81.05;99838.23;84251;281;137286;-70
2023/08/27 03:55:09;;;;;;;11.10;9.70;;;;;;;25.36;78.91;99843.20;84327;281;24324;-73
2023/08/27 03:57:10;;;;;;;13.70;9.60;;;;;;;25.70;76.91;99839.05;84183;282;136564;-75
2023/08/27 03:59:13;;;;;;;11.70;10.10;;;;;;;26.07;74.48;99841.69;84294;282;23870;-75
2023/08/27 04:01:16;;;;;;;16.90;10.80;;;;;;;26.39;71.54;99839.27;84393;282;137197;-75
2023/08/27 04:03:17;;;;;;;14.40;11.10;;;;;;;26.62;70.13;99838.69;84504;282;25337;-74
2023/08/27 04:05:19;;;;;;;11.60;10.60;;;;;;;26.75;69.04;99838.08;84172;281;136714;-78
2023/08/27 04:07:21;;;;;;;11.00;9.80;;;;;;;26.83;68.79;99842.20;84208;283;25195;-74
2023/08/27 04:09:23;;;;;;;11.40;10.40;;;;;;;26.91;68.05;99847.25;84124;283;136539;-73
2023/08/27 04:11:26;;;;;;;10.60;9.60;;;;;;;26.98;67.68;99848.38;84388;281;22548;-72
2023/08/27 04:13:27;;;;;;;12.00;10.70;;;;;;;27.06;67.18;99852.45;84092;283;135725;-74
2023/08/27 04:15:29;;;;;;;12.80;10.50;;;;;;;27.17;66.82;99855.36;84326;282;22583;-74
2023/08/27 04:17:31;;;;;;;10.60;9.60;;;;;;;27.36;66.50;99856.77;84337;281;138135;-75
2023/08/27 04:19:33;;;;;;;9.80;8.80;;;;;;;27.65;65.49;99861.89;84370;281;22503;-74
2023/08/27 04:21:37;;;;;;;10.70;9.60;;;;;;;27.90;64.21;99856.41;84159;283;138818;-74
2023/08/27 04:23:39;;;;;;;11.10;9.70;;;;;;;28.24;62.85;99865.05;84272;282;24122;-72
2023/08/27 04:25:44;;;;;;;10.90;9.90;;;;;;;28.50;61.60;99857.29;84182;283;137311;-74
2023/08/27 04:27:47;;;;;;;10.40;9.40;;;;;;;28.79;60.52;99854.82;84327;281;22682;-71
2023/08/27 04:29:49;;;;;;;10.40;9.30;;;;;;;29.15;58.86;99855.94;84275;283;136341;-74
2023/08/27 04:31:54;;;;;;;10.20;9.20;;;;;;;29.52;57.03;99850.00;84211;281;22550;-75
2023/08/27 04:33:56;;;;;;;9.90;9.00;;;;;;;29.81;55.77;99850.54;84080;283;136433;-74
2023/08/27 04:35:58;;;;;;;13.70;9.40;;;;;;;30.07;54.60;99854.34;84150;283;22745;-74
2023/08/27 04:38:00;;;;;;;9.40;8.50;;;;;;;30.28;53.52;99856.27;84240;281;136325;-74
2023/08/27 04:40:03;;;;;;;9.30;8.60;;;;;;;30.43;53.24;99857.27;84238;283;26415;-74
2023/08/27 04:42:05;;;;;;;11.50;8.90;;;;;;;30.56;52.61;99856.37;84220;283;22706;-75
2023/08/27 04:44:08;;;;;;;10.60;9.70;;;;;;;30.53;52.35;99851.59;84142;281;138492;-72
2023/08/27 04:46:13;;;;;;;10.10;9.10;;;;;;;30.51;52.43;99849.55;84198;283;25226;-73
2023/08/27 04:48:15;;;;;;;9.90;9.00;;;;;;;30.57;52.47;99851.06;84105;283;136833;-74
2023/08/27 04:50:17;;;;;;;9.40;8.60;;;;;;;30.78;51.86;99852.31;84141;283;22550;-73
2023/08/27 04:52:19;;;;;;;9.20;8.40;;;;;;;31.04;51.21;99850.05;84179;281;136508;-70
2023/08/27 04:54:32;;;;;;;10.00;9.20;;;;;;;31.27;50.22;99850.63;84145;283;25241;-71
2023/08/27 04:56:34;;;;;;;9.30;8.40;;;;;;;31.32;49.62;99845.84;84117;282;135220;-74
2023/08/27 04:58:36;;;;;;;9.40;8.60;;;;;;;31.28;49.65;99843.73;84251;281;23242;-74
2023/08/27 05:00:38;;;;;;;10.30;8.80;;;;;;;31.25;49.65;99840.11;84167;282;137416;-73
2023/08/27 05:02:39;;;;;;;11.20;9.20;;;;;;;31.26;49.55;99843.59;84258;283;23117;-72
2023/08/27 05:04:41;;;;;;;10.50;8.20;;;;;;;31.26;49.27;99840.15;83995;285;136250;-73
2023/08/27 05:06:43;;;;;;;8.90;8.10;;;;;;;31.43;49.10;99846.56;84305;282;23121;-74
2023/08/27 05:08:46;;;;;;;9.50;8.30;;;;;;;31.62;48.70;99844.45;84293;281;136276;-73
2023/08/27 05:10:48;;;;;;;13.50;8.50;;;;;;;31.80;48.29;99841.98;84162;283;22684;-73
2023/08/27 05:12:50;;;;;;;9.80;8.90;;;;;;;31.90;47.86;99846.80;84367;281;136296;-72
2023/08/27 05:14:52;;;;;;;9.10;8.40;;;;;;;31.67;48.17;99843.92;84240;281;22548;-73
2023/08/27 05:16:54;;;;;;;8.80;8.00;;;;;;;31.24;49.01;99843.45;84247;281;136280;-73
2023/08/27 05:18:56;;;;;;;8.30;7.60;;;;;;;30.78;50.17;99841.13;84373;281;22778;-73
2023/08/27 05:20:58;;;;;;;9.30;8.30;;;;;;;30.27;51.65;99842.01;84424;281;135941;-74
2023/08/27 05:23:00;;;;;;;7.90;7.30;;;;;;;29.79;53.08;99838.27;84625;282;23180;-73
2023/08/27 05:25:03;;;;;;;9.50;8.50;;;;;;;29.33;54.98;99843.85;84099;282;137003;-73
2023/08/27 05:27:04;;;;;;;10.70;8.20;;;;;;;28.98;56.41;99842.94;84219;282;22570;-75
2023/08/27 05:29:06;;;;;;;9.10;8.30;;;;;;;28.92;57.43;99837.65;84504;282;137587;-73
2023/08/27 05:31:08;;;;;;;10.40;8.40;;;;;;;28.89;57.85;99834.80;84238;282;24337;-74
2023/08/27 05:33:10;;;;;;;8.90;8.10;;;;;;;28.92;57.62;99839.39;84211;283;136472;-74
2023/08/27 05:35:12;;;;;;;8.30;7.50;;;;;;;29.08;57.45;99843.92;84132;284;22548;-73
2023/08/27 05:37:15;;;;;;;10.70;8.80;;;;;;;29.30;57.29;99846.15;84388;270;136953;-71
2023/08/27 05:39:17;;;;;;;8.20;7.50;;;;;;;29.52;56.34;99841.45;84270;282;22584;-74
2023/08/27 05:41:19;;;;;;;9.20;8.40;;;;;;;29.65;56.06;99833.70;84080;283;136911;-72
2023/08/27 05:43:21;;;;;;;8.80;7.90;;;;;;;29.99;55.61;99846.45;84178;283;22811;-72
2023/08/27 05:45:23;;;;;;;8.60;7.60;;;;;;;30.33;54.32;99844.45;84221;282;138183;-73
2023/08/27 05:47:26;;;;;;;7.50;6.90;;;;;;;30.59;53.03;99842.02;84289;283;24078;-73
2023/08/27 05:49:28;;;;;;;8.40;7.30;;;;;;;30.77;52.27;99839.48;83806;282;668013;-74
2023/08/27 05:51:33;;;;;;;9.10;7.10;;;;;;;30.98;51.39;99836.40;84258;283;24351;-77
2023/08/27 05:53:35;;;;;;;8.70;7.70;;;;;;;31.17;50.56;99833.98;84427;282;137329;-73
2023/08/27 05:55:37;;;;;;;10.00;7.80;;;;;;;31.33;50.30;99835.16;84392;282;22669;-73
2023/08/27 05:57:38;;;;;;;7.80;7.10;;;;;;;31.46;49.72;99833.92;84387;283;136782;-73
2023/08/27 05:59:40;;;;;;;7.80;6.80;;;;;;;31.59;49.59;99830.61;84643;281;22576;-75
2023/08/27 06:01:42;;;;;;;8.00;7.30;;;;;;;31.78;48.84;99833.63;84365;283;136933;-72
2023/08/27 06:03:44;;;;;;;8.50;7.60;;;;;;;31.91;48.40;99828.48;84719;282;23169;-74
2023/08/27 06:05:46;;;;;;;8.90;7.70;;;;;;;31.98;48.11;99830.14;84322;282;135739;-75
2023/08/27 06:07:48;;;;;;;7.70;7.10;;;;;;;32.00;47.63;99828.06;84531;281;25292;-76
2023/08/27 06:09:50;;;;;;;7.30;6.60;;;;;;;31.91;47.93;99825.48;84234;283;135965;-74
2023/08/27 06:11:51;;;;;;;7.00;6.20;;;;;;;31.85;48.24;99824.11;84433;283;25213;-74
2023/08/27 06:13:53;;;;;;;7.00;6.40;;;;;;;31.98;48.00;99823.30;84409;281;135808;-75
2023/08/27 06:15:55;;;;;;;9.90;7.30;;;;;;;32.06;47.63;99827.88;84381;283;24105;-75
2023/08/27 06:18:02;;;;;;;8.50;7.00;;;;;;;32.12;47.74;99823.44;84163;272;135789;-73
2023/08/27 06:20:07;;;;;;;7.70;7.00;;;;;;;32.35;46.91;99821.36;84380;282;136431;-72
2023/08/27 06:22:09;;;;;;;7.80;7.10;;;;;;;32.38;46.45;99814.86;84245;281;24581;-74
2023/08/27 06:24:11;;;;;;;6.70;6.20;;;;;;;32.27;46.72;99814.98;84232;281;138863;-74
2023/08/27 06:26:13;;;;;;;9.20;7.70;;;;;;;32.24;47.22;99813.16;84314;282;24141;-74
2023/08/27 06:28:15;;;;;;;7.40;6.90;;;;;;;32.34;47.01;99813.95;84220;283;136829;-74
2023/08/27 06:30:16;;;;;;;8.40;7.00;;;;;;;32.57;46.95;99811.07;84323;283;24101;-75
2023/08/27 06:32:18;;;;;;;7.70;6.80;;;;;;;32.87;46.01;99812.73;84246;279;136468;-72
2023/08/27 06:34:21;;;;;;;7.30;6.80;;;;;;;33.18;45.22;99811.47;84465;281;22546;-73
2023/08/27 06:36:23;;;;;;;8.30;6.90;;;;;;;33.37;44.88;99813.64;84319;282;134810;-75
2023/08/27 06:38:26;;;;;;;7.30;6.50;;;;;;;33.35;44.53;99816.34;84539;283;24016;-74
2023/08/27 06:40:29;;;;;;;7.00;6.40;;;;;;;33.22;44.94;99812.20;84344;283;136876;-73
2023/08/27 06:42:31;;;;;;;6.80;5.90;;;;;;;33.18;45.09;99814.86;84385;282;22582;-76
2023/08/27 06:44:33;;;;;;;7.50;6.90;;;;;;;33.20;45.12;99815.95;84356;282;137178;-76
2023/08/27 06:46:35;;;;;;;8.70;6.50;;;;;;;33.20;45.31;99816.09;84374;283;25369;-74
2023/08/27 06:48:36;;;;;;;8.20;7.30;;;;;;;33.12;45.07;99817.14;84440;270;137471;-73
2023/08/27 06:50:38;;;;;;;9.80;7.40;;;;;;;32.96;45.32;99815.58;84395;282;26416;-74
2023/08/27 06:52:40;;;;;;;7.70;6.60;;;;;;;32.82;46.05;99814.81;84394;282;137268;-73
2023/08/27 06:54:41;;;;;;;9.80;6.40;;;;;;;32.86;45.87;99813.72;84523;282;23472;-74
2023/08/27 06:56:43;;;;;;;7.10;6.50;;;;;;;32.80;45.33;99809.16;84183;283;136258;-73
2023/08/27 06:58:46;;;;;;;6.90;6.30;;;;;;;32.71;45.61;99806.85;84150;283;22583;-74
2023/08/27 07:00:49;;;;;;;;;;;;;;;32.69;45.64;99807.64;84194;282;136396;-74
2023/08/27 07:02:53;;;;;;;6.70;6.10;;;;;;;32.67;45.47;99813.98;84667;281;23738;-75
2023/08/27 07:04:55;;;;;;;7.60;7.00;;;;;;;32.58;45.69;99811.03;84342;282;137383;-72
2023/08/27 07:06:57;;;;;;;6.90;6.30;;;;;;;32.51;45.96;99808.20;84296;282;25189;-75
2023/08/27 07:09:00;;;;;;;7.50;5.80;;;;;;;32.42;46.19;99806.70;84319;282;136809;-75
2023/08/27 07:11:03;;;;;;;7.60;6.70;;;;;;;32.37;45.99;99806.92;84160;283;22865;-75
2023/08/27 07:13:05;;;;;;;5.70;5.30;;;;;;;32.35;45.74;99805.79;84347;281;137445;-75
2023/08/27 07:15:07;;;;;;;6.20;5.80;;;;;;;32.31;46.07;99804.31;84345;282;22685;-75
2023/08/27 07:17:09;;;;;;;9.40;6.90;;;;;;;32.31;46.49;99806.61;84145;283;136109;-74
2023/08/27 07:19:11;;;;;;;6.50;6.10;;;;;;;32.29;46.76;99805.42;84256;284;23809;-74
2023/08/27 07:21:13;;;;;;;7.90;5.70;;;;;;;32.14;47.05;99805.52;84355;283;135686;-75
2023/08/27 07:23:15;;;;;;;6.40;5.90;;;;;;;31.88;47.07;99809.11;84060;284;22608;-73
2023/08/27 07:25:17;;;;;;;6.80;6.30;;;;;;;31.58;47.75;99806.39;84266;283;136031;-73
2023/08/27 07:27:20;;;;;;;6.50;5.90;;;;;;;31.34;48.94;99807.92;84468;281;22564;-75
2023/08/27 07:29:23;;;;;;;6.70;6.00;;;;;;;31.19;49.22;99808.59;84357;281;137505;-76
2023/08/27 07:31:24;;;;;;;10.60;6.20;;;;;;;31.07;49.79;99806.27;84363;283;22553;-75
2023/08/27 07:33:27;;;;;;;6.20;5.70;;;;;;;30.98;49.81;99806.69;84233;282;136376;-75
2023/08/27 07:35:31;;;;;;;5.80;5.30;;;;;;;30.97;49.48;99813.09;84509;283;25288;-75
2023/08/27 07:37:33;;;;;;;6.50;5.90;;;;;;;30.96;49.38;99811.14;84259;281;137820;-76
2023/08/27 07:39:36;;;;;;;5.30;5.10;;;;;;;30.93;49.58;99809.08;84203;283;23714;-74
2023/08/27 07:41:37;;;;;;;8.20;6.20;;;;;;;30.95;48.72;99814.16;84124;281;136324;-75
2023/08/27 07:43:39;;;;;;;5.80;5.40;;;;;;;30.94;49.23;99813.36;84217;282;25259;-74
2023/08/27 07:45:41;;;;;;;5.80;5.40;;;;;;;30.93;49.60;99813.02;84415;281;136259;-74
2023/08/27 07:47:43;;;;;;;9.90;6.40;;;;;;;30.92;49.80;99810.93;84480;282;25384;-74
2023/08/27 07:49:45;;;;;;;4.80;4.50;;;;;;;30.92;50.35;99814.40;84269;282;136431;-72
2023/08/27 07:51:48;;;;;;;9.10;6.00;;;;;;;30.93;50.18;99816.06;84672;281;25364;-74
2023/08/27 07:53:50;;;;;;;6.60;6.10;;;;;;;30.92;50.16;99818.17;84121;284;137329;-75
2023/08/27 07:55:54;;;;;;;6.50;5.60;;;;;;;30.91;50.07;99819.86;84563;281;22586;-73
2023/08/27 07:57:56;;;;;;;7.20;5.80;;;;;;;30.85;50.19;99813.05;84116;281;134915;-75
2023/08/27 07:59:58;;;;;;;6.70;5.50;;;;;;;30.93;49.84;99828.14;84210;279;22671;-74
2023/08/27 08:02:00;;;;;;;6.20;4.30;;;;;;;30.95;49.60;99825.90;84304;281;136091;-75
2023/08/27 08:04:02;;;;;;;5.40;5.10;;;;;;;30.98;49.62;99824.11;84375;283;22548;-72
2023/08/27 08:06:05;;;;;;;5.60;5.10;;;;;;;30.98;49.93;99820.81;84230;281;25174;-68
2023/08/27 08:08:07;;;;;;;6.90;5.40;;;;;;;30.96;50.27;99823.58;84923;281;136236;-76
2023/08/27 08:10:08;;;;;;;7.10;6.30;;;;;;;30.98;50.27;99821.37;84306;282;22662;-75
2023/08/27 08:12:10;;;;;;;7.10;6.40;;;;;;;31.00;50.74;99818.13;84175;281;136547;-72
2023/08/27 08:14:12;;;;;;;9.00;6.50;;;;;;;31.00;51.28;99815.41;84267;282;22538;-75
2023/08/27 08:16:14;;;;;;;7.40;6.90;;;;;;;30.98;51.40;99811.70;84478;282;139110;-73
2023/08/27 08:18:16;;;;;;;6.90;6.30;;;;;;;30.96;51.23;99807.16;84385;282;24411;-74
2023/08/27 08:20:20;;;;;;;6.70;6.10;;;;;;;30.91;51.25;99811.54;84195;282;137780;-71
2023/08/27 08:22:21;;;;;;;6.30;5.90;;;;;;;30.87;51.44;99809.39;84544;281;22694;-72
2023/08/27 08:24:24;;;;;;;7.60;7.00;;;;;;;30.88;51.13;99813.20;84114;281;136175;-72
2023/08/27 08:26:26;;;;;;;7.40;6.70;;;;;;;30.90;51.23;99816.77;84256;282;22549;-73
2023/08/27 08:28:28;;;;;;;7.60;6.80;;;;;;;30.96;50.94;99818.23;84017;283;136789;-74
2023/08/27 08:30:30;;;;;;;7.10;6.40;;;;;;;30.98;50.87;99815.86;84617;281;22547;-74
2023/08/27 08:32:32;;;;;;;7.10;6.50;;;;;;;30.99;50.84;99813.77;84555;281;137324;-74
2023/08/27 08:34:33;;;;;;;8.00;6.20;;;;;;;31.03;50.95;99807.62;84411;281;24330;-71
2023/08/27 08:36:35;;;;;;;6.50;6.10;;;;;;;31.07;50.83;99806.35;84121;281;136084;-75
2023/08/27 08:38:37;;;;;;;7.60;6.50;;;;;;;31.03;50.73;99793.95;84450;280;24099;-77
2023/08/27 08:40:44;;;;;;;6.80;6.30;;;;;;;31.16;50.59;99799.59;84467;282;136650;-77
2023/08/27 08:42:59;;;;;;;9.50;6.20;;;;;;;31.26;50.18;99793.64;84418;281;24109;-77
2023/08/27 08:45:26;;;;;;;7.70;6.60;;;;;;;31.35;49.91;99794.75;84223;281;137276;-76
2023/08/27 08:47:28;;;;;;;7.30;6.70;;;;;;;31.43;49.91;99796.59;84208;282;22569;-75
2023/08/27 08:49:34;;;;;;;7.00;6.30;;;;;;;31.45;49.82;99786.98;84093;281;136158;-75
2023/08/27 08:51:36;;;;;;;7.00;6.30;;;;;;;31.53;49.32;99793.88;84433;278;24112;-75
2023/08/27 08:53:42;;;;;;;6.00;5.50;;;;;;;31.54;49.20;99791.77;84113;283;136562;-75
2023/08/27 08:55:51;;;;;;;6.00;5.50;;;;;;;31.55;49.16;99790.09;84464;281;26310;-77
2023/08/27 08:58:01;;;;;;;6.60;6.00;;;;;;;31.60;49.19;99795.82;84368;281;136123;-71
2023/08/27 09:00:04;;;;;;;7.70;6.80;;;;;;;31.66;48.69;99796.52;84450;281;25156;-73
2023/08/27 09:02:10;;;;;;;5.90;5.40;;;;;;;31.72;48.86;99797.80;84254;285;22549;-72
2023/08/27 09:04:14;;;;;;;8.50;6.00;;;;;;;31.76;48.97;99796.27;84193;282;136274;-71
2023/08/27 09:06:19;;;;;;;8.50;5.90;;;;;;;31.81;48.39;99796.44;84498;281;22576;-70
2023/08/27 09:08:22;;;;;;;5.70;5.20;;;;;;;31.85;47.88;99796.88;84328;281;136465;-70
2023/08/27 09:10:24;;;;;;;6.50;4.60;;;;;;;31.86;48.16;99791.38;84609;282;25196;-72
2023/08/27 09:12:27;;;;;;;6.90;6.30;;;;;;;31.90;47.47;99787.77;84265;282;137592;-71
2023/08/27 09:14:29;;;;;;;6.70;6.10;;;;;;;31.97;47.49;99792.39;84283;281;22581;-69
2023/08/27 09:16:31;;;;;;;9.20;6.30;;;;;;;32.03;47.64;99790.14;84360;281;135942;-72
2023/08/27 09:18:34;;;;;;;8.30;5.40;;;;;;;32.06;47.41;99790.69;84326;282;22553;-71
2023/08/27 09:20:36;;;;;;;5.50;5.00;;;;;;;32.08;46.84;99794.64;84408;282;137599;-71
2023/08/27 09:22:40;;;;;;;7.40;5.10;;;;;;;32.08;46.24;99789.99;84347;281;25257;-75
2023/08/27 09:24:42;;;;;;;5.80;5.30;;;;;;;32.12;46.31;99787.99;84219;283;135791;-75
2023/08/27 09:26:44;;;;;;;5.80;5.40;;;;;;;32.16;46.54;99782.84;84387;282;22564;-75
2023/08/27 09:28:47;;;;;;;5.40;4.70;;;;;;;32.17;46.25;99778.77;84163;282;136476;-75
2023/08/27 09:30:49;;;;;;;5.40;4.90;;;;;;;32.20;46.09;99779.72;84501;282;26267;-76
2023/08/27 09:32:51;;;;;;;8.10;5.60;;;;;;;32.19;45.45;99776.86;84059;281;137669;-75
2023/08/27 09:35:05;;;;;;;5.00;4.70;;;;;;;32.20;45.79;99774.19;84154;282;24229;-75
2023/08/27 09:37:07;;;;;;;;;;;;;;;32.19;46.06;99775.70;84473;281;136946;-75